createdAt,value
2019-05-07T00:02:14.593Z,11.53
2019-05-07T00:04:44.092Z,11.54
2019-05-07T00:07:13.536Z,11.53
2019-05-07T00:09:43.212Z,11.63
2019-05-07T00:12:12.732Z,11.75
2019-05-07T00:14:43.022Z,11.71
2019-05-07T00:17:13.476Z,11.72
2019-05-07T00:19:43.287Z,11.75
2019-05-07T00:22:12.869Z,11.83
2019-05-07T00:24:42.774Z,11.83
2019-05-07T00:27:13.150Z,11.85
2019-05-07T00:29:43.032Z,11.76
2019-05-07T00:32:12.603Z,11.83
2019-05-07T00:34:46.301Z,11.92
2019-05-07T00:37:29.370Z,11.94
2019-05-07T00:40:17.198Z,11.95
2019-05-07T00:43:04.644Z,11.99
2019-05-07T00:48:26.799Z,11.88
2019-05-07T00:50:57.803Z,11.89
2019-05-07T00:53:27.168Z,11.85
2019-05-07T00:55:56.521Z,11.83
2019-05-07T00:58:27.058Z,11.85
2019-05-07T01:00:56.484Z,11.83
2019-05-07T01:03:25.848Z,11.77
2019-05-07T01:05:55.214Z,11.73
2019-05-07T01:08:24.585Z,11.74
2019-05-07T01:10:53.952Z,11.76
2019-05-07T01:13:23.612Z,11.69
2019-05-07T01:15:53.415Z,11.61
2019-05-07T01:18:23.468Z,11.66
2019-05-07T01:20:53.411Z,11.57
2019-05-07T01:23:23.163Z,11.54
2019-05-07T01:25:52.949Z,11.57
2019-05-07T01:28:22.558Z,11.51
2019-05-07T01:30:52.812Z,11.54
2019-05-07T01:33:24.185Z,11.49
2019-05-07T01:38:37.102Z,11.41
2019-05-07T01:41:06.472Z,11.36
2019-05-07T01:43:35.834Z,11.40
2019-05-07T01:46:05.217Z,11.30
2019-05-07T01:48:34.896Z,11.32
2019-05-07T01:51:04.299Z,11.33
2019-05-07T01:53:33.670Z,11.34
2019-05-07T01:56:03.416Z,11.31
2019-05-07T01:58:33.326Z,11.32
2019-05-07T02:01:03.058Z,11.29
2019-05-07T02:06:13.322Z,11.20
2019-05-07T02:08:50.274Z,11.18
2019-05-07T02:11:37.785Z,11.26
2019-05-07T02:14:07.140Z,11.21
2019-05-07T02:16:36.522Z,11.21
2019-05-07T02:19:08.774Z,11.18
2019-05-07T02:21:38.186Z,11.18
2019-05-07T02:24:07.609Z,11.20
2019-05-07T02:26:37.054Z,11.16
2019-05-07T02:29:06.496Z,11.12
2019-05-07T02:31:35.846Z,11.15
2019-05-07T02:34:05.194Z,11.12
2019-05-07T02:36:35.268Z,11.08
2019-05-07T02:39:24.102Z,11.12
2019-05-07T02:41:54.370Z,11.10
2019-05-07T02:44:23.816Z,11.14
2019-05-07T02:46:57.776Z,11.03
2019-05-07T02:49:28.765Z,10.99
2019-05-07T02:52:08.690Z,11.07
2019-05-07T02:54:55.845Z,10.91
2019-05-07T02:57:25.675Z,10.94
2019-05-07T02:59:55.047Z,10.93
2019-05-07T03:02:24.468Z,10.88
2019-05-07T03:04:53.833Z,10.94
2019-05-07T03:07:24.230Z,10.98
2019-05-07T03:09:54.173Z,10.98
2019-05-07T03:12:24.007Z,10.96
2019-05-07T03:14:54.056Z,10.91
2019-05-07T03:17:24.518Z,10.84
2019-05-07T03:19:55.612Z,10.85
2019-05-07T03:22:25.072Z,10.85
2019-05-07T03:25:05.389Z,10.82
2019-05-07T03:27:34.736Z,10.79
2019-05-07T03:32:47.613Z,10.73
2019-05-07T03:35:37.014Z,10.68
2019-05-07T03:38:05.669Z,10.66
2019-05-07T03:40:35.982Z,10.64
2019-05-07T03:43:06.175Z,10.64
2019-05-07T03:45:42.979Z,10.64
2019-05-07T03:48:15.578Z,10.63
2019-05-07T03:50:45.026Z,10.56
2019-05-07T03:53:14.597Z,10.59
2019-05-07T03:55:44.838Z,10.57
2019-05-07T03:58:14.991Z,10.56
2019-05-07T04:00:45.208Z,10.60
2019-05-07T04:03:18.974Z,10.54
2019-05-07T04:05:45.684Z,10.66
2019-05-07T04:08:15.130Z,10.59
2019-05-07T04:10:44.744Z,10.65
2019-05-07T04:13:14.253Z,10.57
2019-05-07T04:15:44.260Z,10.60
2019-05-07T04:18:13.792Z,10.60
2019-05-07T04:20:43.863Z,10.60
2019-05-07T04:23:14.234Z,10.47
2019-05-07T04:25:45.523Z,10.49
2019-05-07T04:28:33.489Z,10.53
2019-05-07T04:31:03.395Z,10.54
2019-05-07T04:33:37.464Z,10.57
2019-05-07T04:36:08.452Z,10.57
2019-05-07T04:38:37.887Z,10.53
2019-05-07T04:41:07.310Z,10.60
2019-05-07T04:43:36.761Z,10.64
2019-05-07T04:46:06.311Z,10.71
2019-05-07T04:48:35.658Z,10.79
2019-05-07T04:51:06.664Z,10.80
2019-05-07T04:53:36.023Z,10.80
2019-05-07T04:56:05.451Z,11.01
2019-05-07T04:58:34.805Z,11.16
2019-05-07T05:01:05.528Z,11.43
2019-05-07T05:03:38.984Z,11.81
2019-05-07T05:06:06.026Z,11.78
2019-05-07T05:08:35.583Z,11.94
2019-05-07T05:11:04.938Z,12.28
2019-05-07T05:13:34.374Z,12.68
2019-05-07T05:16:05.480Z,12.70
2019-05-07T05:18:34.855Z,12.92
2019-05-07T05:21:08.472Z,13.25
2019-05-07T05:23:45.662Z,13.32
2019-05-07T05:26:15.005Z,13.31
2019-05-07T05:28:44.362Z,13.23
2019-05-07T05:31:13.785Z,13.44
2019-05-07T05:33:43.260Z,13.42
2019-05-07T05:36:12.838Z,13.68
2019-05-07T05:38:42.609Z,14.15
2019-05-07T05:41:12.490Z,14.42
2019-05-07T05:43:52.814Z,14.25
2019-05-07T05:46:23.882Z,14.54
2019-05-07T05:48:53.263Z,14.00
2019-05-07T05:51:42.995Z,14.16
2019-05-07T05:54:26.374Z,14.58
2019-05-07T05:56:57.343Z,14.77
2019-05-07T05:59:47.879Z,14.19
2019-05-07T06:02:06.843Z,14.60
2019-05-07T06:04:56.136Z,15.19
2019-05-07T06:07:31.908Z,15.18
2019-05-07T06:10:17.978Z,15.08
2019-05-07T06:12:49.121Z,15.31
2019-05-07T06:15:23.082Z,15.77
2019-05-07T06:18:18.816Z,16.04
2019-05-07T06:20:46.153Z,16.26
2019-05-07T06:23:23.334Z,15.53
2019-05-07T06:25:52.916Z,15.66
2019-05-07T06:28:22.601Z,15.99
2019-05-07T06:30:52.720Z,15.85
2019-05-07T06:33:23.094Z,15.63
2019-05-07T06:35:52.700Z,15.40
2019-05-07T06:38:23.211Z,15.26
2019-05-07T06:40:56.937Z,15.43
2019-05-07T06:43:46.394Z,15.01
2019-05-07T06:46:15.833Z,14.90
2019-05-07T06:48:46.302Z,15.07
2019-05-07T06:51:17.550Z,15.05
2019-05-07T06:53:47.140Z,15.10
2019-05-07T06:56:16.483Z,15.33
2019-05-07T06:58:52.485Z,15.74
2019-05-07T07:01:28.973Z,15.80
2019-05-07T07:04:15.381Z,15.99
2019-05-07T07:06:49.227Z,16.37
2019-05-07T07:09:22.279Z,16.23
2019-05-07T07:11:58.664Z,15.87
2019-05-07T07:14:28.035Z,15.24
2019-05-07T07:16:57.497Z,15.30
2019-05-07T07:19:26.846Z,15.13
2019-05-07T07:21:56.263Z,14.99
2019-05-07T07:24:25.637Z,14.46
2019-05-07T07:26:54.984Z,14.62
2019-05-07T07:29:26.000Z,14.82
2019-05-07T07:31:57.053Z,15.47
2019-05-07T07:34:27.880Z,16.03
2019-05-07T07:37:15.799Z,16.06
2019-05-07T07:39:45.466Z,16.56
2019-05-07T07:42:18.101Z,16.25
2019-05-07T07:44:49.069Z,16.96
2019-05-07T07:47:18.545Z,16.81
2019-05-07T07:49:47.998Z,16.81
2019-05-07T07:52:17.726Z,16.93
2019-05-07T07:54:53.004Z,17.07
2019-05-07T08:00:40.053Z,17.09
2019-05-07T08:03:13.234Z,17.02
2019-05-07T08:05:42.732Z,17.15
2019-05-07T08:08:12.926Z,17.16
2019-05-07T08:10:42.806Z,17.20
2019-05-07T08:13:16.783Z,17.47
2019-05-07T08:15:51.930Z,17.99
2019-05-07T08:18:17.506Z,18.05
2019-05-07T08:20:46.849Z,18.05
2019-05-07T08:23:16.176Z,18.07
2019-05-07T08:25:48.236Z,17.83
2019-05-07T08:28:23.188Z,18.48
2019-05-07T08:30:57.359Z,18.58
2019-05-07T08:33:28.378Z,18.38
2019-05-07T08:36:17.825Z,18.26
2019-05-07T08:38:52.870Z,18.63
2019-05-07T08:41:23.724Z,18.16
2019-05-07T08:44:11.712Z,18.16
2019-05-07T08:46:53.998Z,18.85
2019-05-07T08:49:35.720Z,19.04
2019-05-07T08:52:03.817Z,19.06
2019-05-07T08:54:34.368Z,19.06
2019-05-07T08:57:08.257Z,18.90
2019-05-07T08:59:37.872Z,18.39
2019-05-07T09:02:12.617Z,18.81
2019-05-07T09:04:44.368Z,18.81
2019-05-07T09:07:13.519Z,19.43
2019-05-07T09:09:42.977Z,19.43
2019-05-07T09:12:12.657Z,19.58
2019-05-07T09:14:42.761Z,19.69
2019-05-07T09:17:15.672Z,19.77
2019-05-07T09:19:51.560Z,20.08
2019-05-07T09:22:19.699Z,20.08
2019-05-07T09:24:53.713Z,19.74
2019-05-07T09:27:28.958Z,20.22
2019-05-07T09:30:17.102Z,19.38
2019-05-07T09:32:52.187Z,19.63
2019-05-07T09:35:26.178Z,19.63
2019-05-07T09:38:12.242Z,18.83
2019-05-07T09:40:42.238Z,19.94
2019-05-07T09:43:11.774Z,19.91
2019-05-07T09:45:42.050Z,19.50
2019-05-07T09:48:13.393Z,19.50
2019-05-07T09:50:44.443Z,18.75
2019-05-07T09:53:13.922Z,18.77
2019-05-07T09:55:44.758Z,19.25
2019-05-07T09:58:14.186Z,19.13
2019-05-07T10:00:44.136Z,19.13
2019-05-07T10:03:15.170Z,19.85
2019-05-07T10:05:51.869Z,20.34
2019-05-07T10:08:39.632Z,20.67
2019-05-07T10:11:12.119Z,20.82
2019-05-07T10:13:44.750Z,20.28
2019-05-07T10:16:15.855Z,20.06
2019-05-07T10:18:45.740Z,20.22
2019-05-07T10:21:15.581Z,20.22
2019-05-07T10:23:48.273Z,21.09
2019-05-07T10:26:26.732Z,20.33
2019-05-07T10:31:49.215Z,20.70
2019-05-07T10:34:22.898Z,20.51
2019-05-07T10:36:53.828Z,21.21
2019-05-07T10:39:23.433Z,20.85
2019-05-07T10:41:57.819Z,20.70
2019-05-07T10:44:29.295Z,20.70
2019-05-07T10:47:17.832Z,21.04
2019-05-07T10:50:05.001Z,20.94
2019-05-07T10:52:34.683Z,20.91
2019-05-07T10:55:04.480Z,20.91
2019-05-07T10:57:33.987Z,20.46
2019-05-07T11:00:03.665Z,19.74
2019-05-07T11:02:33.416Z,20.31
2019-05-07T11:05:07.983Z,20.50
2019-05-07T11:07:42.179Z,20.20
2019-05-07T11:10:14.789Z,20.82
2019-05-07T11:12:46.052Z,21.51
2019-05-07T11:15:27.302Z,21.33
2019-05-07T11:17:59.554Z,20.80
2019-05-07T11:20:29.171Z,19.32
2019-05-07T11:23:04.230Z,19.94
2019-05-07T11:25:37.926Z,20.32
2019-05-07T11:28:07.335Z,20.62
2019-05-07T11:30:36.895Z,20.85
2019-05-07T11:33:08.083Z,20.85
2019-05-07T11:35:37.823Z,20.85
2019-05-07T11:38:18.667Z,21.34
2019-05-07T11:40:44.866Z,20.73
2019-05-07T11:43:15.888Z,20.73
2019-05-07T11:46:02.030Z,21.35
2019-05-07T11:48:38.388Z,20.90
2019-05-07T11:51:12.377Z,21.49
2019-05-07T11:54:02.090Z,20.34
2019-05-07T11:56:33.322Z,20.34
2019-05-07T11:59:05.834Z,20.18
2019-05-07T12:01:46.935Z,19.69
2019-05-07T12:04:12.505Z,19.69
2019-05-07T12:06:42.252Z,19.96
2019-05-07T12:09:12.166Z,19.73
2019-05-07T12:11:42.585Z,19.98
2019-05-07T12:14:12.554Z,19.63
2019-05-07T12:16:42.690Z,19.63
2019-05-07T12:19:16.599Z,19.92
2019-05-07T12:21:48.456Z,20.37
2019-05-07T12:24:19.589Z,19.70
2019-05-07T12:26:53.130Z,19.70
2019-05-07T12:29:22.688Z,19.88
2019-05-07T12:32:02.804Z,19.95
2019-05-07T12:34:39.891Z,19.95
2019-05-07T12:37:09.544Z,19.57
2019-05-07T12:39:47.867Z,19.66
2019-05-07T12:42:22.309Z,19.50
2019-05-07T12:44:52.379Z,19.50
2019-05-07T12:47:22.539Z,19.03
2019-05-07T12:49:52.244Z,18.55
2019-05-07T12:52:23.434Z,18.55
2019-05-07T12:54:57.463Z,18.61
2019-05-07T12:57:26.899Z,18.04
2019-05-07T12:59:57.910Z,17.83
2019-05-07T13:02:40.880Z,17.81
2019-05-07T13:05:07.768Z,17.06
2019-05-07T13:07:38.761Z,16.82
2019-05-07T13:10:08.790Z,16.83
2019-05-07T13:12:38.317Z,16.61
2019-05-07T13:15:20.524Z,17.12
2019-05-07T13:17:39.211Z,17.16
2019-05-07T13:20:08.805Z,16.79
2019-05-07T13:22:38.251Z,16.91
2019-05-07T13:25:08.213Z,17.51
2019-05-07T13:27:40.045Z,18.14
2019-05-07T13:30:08.932Z,18.00
2019-05-07T13:32:41.906Z,17.75
2019-05-07T13:35:14.406Z,18.13
2019-05-07T13:37:52.792Z,18.34
2019-05-07T13:40:39.105Z,18.67
2019-05-07T13:43:11.882Z,18.75
2019-05-07T13:45:48.992Z,19.07
2019-05-07T13:48:22.652Z,18.91
2019-05-07T13:50:55.286Z,18.12
2019-05-07T13:53:26.095Z,17.47
2019-05-07T13:56:03.272Z,17.91
2019-05-07T13:58:33.034Z,17.66
2019-05-07T14:01:20.033Z,17.68
2019-05-07T14:03:49.733Z,18.04
2019-05-07T14:06:36.992Z,17.97
2019-05-07T14:09:10.891Z,18.06
2019-05-07T14:11:42.322Z,17.93
2019-05-07T14:14:12.284Z,17.81
2019-05-07T14:16:44.974Z,17.10
2019-05-07T14:19:14.744Z,17.10
2019-05-07T14:21:44.302Z,17.17
2019-05-07T14:24:14.916Z,17.49
2019-05-07T14:26:44.434Z,16.84
2019-05-07T14:29:13.952Z,16.43
2019-05-07T14:31:43.414Z,16.51
2019-05-07T14:34:17.391Z,16.67
2019-05-07T14:36:48.399Z,16.42
2019-05-07T14:39:17.754Z,15.63
2019-05-07T14:41:48.763Z,15.29
2019-05-07T14:44:19.010Z,14.95
2019-05-07T14:46:53.642Z,14.37
2019-05-07T14:49:22.619Z,14.15
2019-05-07T14:51:53.942Z,13.91
2019-05-07T14:54:23.097Z,13.85
2019-05-07T14:56:52.454Z,13.97
2019-05-07T14:59:21.810Z,13.60
2019-05-07T15:01:52.223Z,13.49
2019-05-07T15:04:22.199Z,13.57
2019-05-07T15:06:51.999Z,13.71
2019-05-07T15:09:22.391Z,14.24
2019-05-07T15:11:52.682Z,14.16
2019-05-07T15:14:22.177Z,14.17
2019-05-07T15:16:53.186Z,14.20
2019-05-07T15:19:22.742Z,14.38
2019-05-07T15:22:09.871Z,14.20
2019-05-07T15:24:39.362Z,13.61
2019-05-07T15:27:08.864Z,13.58
2019-05-07T15:29:42.078Z,13.59
2019-05-07T15:32:12.593Z,13.63
2019-05-07T15:34:42.296Z,13.62
2019-05-07T15:37:12.292Z,13.68
2019-05-07T15:39:42.188Z,13.11
2019-05-07T15:42:11.684Z,12.86
2019-05-07T15:44:43.078Z,12.75
2019-05-07T15:47:13.893Z,12.70
2019-05-07T15:49:43.339Z,12.48
2019-05-07T15:52:14.343Z,12.38
2019-05-07T15:54:43.732Z,12.48
2019-05-07T15:57:14.779Z,12.41
2019-05-07T15:59:44.160Z,12.19
2019-05-07T16:02:15.201Z,12.33
2019-05-07T16:04:44.562Z,12.29
2019-05-07T16:07:14.215Z,12.03
2019-05-07T16:09:43.639Z,12.25
2019-05-07T16:12:14.587Z,12.31
2019-05-07T16:14:43.959Z,12.15
2019-05-07T16:17:14.992Z,12.02
2019-05-07T16:19:44.348Z,12.05
2019-05-07T16:22:15.465Z,12.00
2019-05-07T16:24:44.852Z,11.69
2019-05-07T16:27:14.197Z,11.86
2019-05-07T16:29:43.609Z,11.87
2019-05-07T16:32:12.982Z,11.78
2019-05-07T16:34:42.934Z,11.90
2019-05-07T16:37:12.591Z,11.80
2019-05-07T16:39:42.748Z,11.48
2019-05-07T16:42:12.203Z,11.61
2019-05-07T16:44:41.899Z,11.65
2019-05-07T16:47:12.193Z,11.59
2019-05-07T16:49:42.454Z,11.68
2019-05-07T16:52:12.189Z,11.68
2019-05-07T16:54:42.663Z,11.63
2019-05-07T16:57:17.313Z,11.63
2019-05-07T16:59:46.763Z,11.69
2019-05-07T17:02:17.756Z,11.53
2019-05-07T17:05:06.212Z,11.55
2019-05-07T17:07:37.226Z,11.53
2019-05-07T17:10:11.648Z,11.41
2019-05-07T17:12:43.963Z,11.37
2019-05-07T17:15:13.509Z,11.41
2019-05-07T17:17:42.892Z,11.34
2019-05-07T17:20:12.843Z,11.29
2019-05-07T17:22:42.738Z,11.24
2019-05-07T17:25:30.147Z,11.20
2019-05-07T17:27:59.551Z,11.13
2019-05-07T17:30:29.108Z,11.16
2019-05-07T17:32:58.593Z,11.08
2019-05-07T17:35:28.053Z,11.06
2019-05-07T17:38:06.321Z,11.09
2019-05-07T17:40:28.692Z,10.99
2019-05-07T17:42:58.060Z,10.99
2019-05-07T17:45:27.450Z,10.95
2019-05-07T17:47:56.909Z,10.88
2019-05-07T17:50:27.942Z,10.87
2019-05-07T17:52:57.384Z,10.92
2019-05-07T17:55:26.788Z,10.90
2019-05-07T17:57:56.262Z,10.94
2019-05-07T18:00:25.741Z,10.91
2019-05-07T18:03:13.105Z,10.92
2019-05-07T18:05:42.710Z,11.03
2019-05-07T18:08:12.611Z,10.99
2019-05-07T18:10:42.514Z,11.02
2019-05-07T18:13:11.986Z,11.01
2019-05-07T18:15:42.751Z,11.02
2019-05-07T18:18:12.963Z,11.03
2019-05-07T18:20:42.552Z,11.05
2019-05-07T18:23:16.811Z,11.02
2019-05-07T18:25:43.085Z,11.03
2019-05-07T18:28:13.040Z,11.05
2019-05-07T18:30:42.510Z,11.06
2019-05-07T18:33:16.240Z,11.03
2019-05-07T18:35:47.259Z,11.01
2019-05-07T18:38:16.726Z,10.95
2019-05-07T18:40:46.189Z,10.97
2019-05-07T18:43:15.565Z,10.92
2019-05-07T18:45:45.027Z,10.96
2019-05-07T18:48:14.454Z,10.97
2019-05-07T18:50:43.885Z,10.99
2019-05-07T18:53:13.279Z,11.01
2019-05-07T18:55:42.781Z,10.98
2019-05-07T18:58:13.357Z,10.96
2019-05-07T19:00:44.606Z,10.97
2019-05-07T19:03:14.053Z,10.94
2019-05-07T19:05:43.468Z,10.92
2019-05-07T19:08:12.906Z,10.93
2019-05-07T19:10:42.916Z,10.95
2019-05-07T19:13:12.717Z,10.97
2019-05-07T19:15:42.455Z,10.92
2019-05-07T19:18:13.553Z,11.02
2019-05-07T19:20:42.926Z,11.00
2019-05-07T19:23:12.352Z,11.08
2019-05-07T19:25:42.154Z,11.12
2019-05-07T19:28:14.670Z,11.09
2019-05-07T19:30:42.846Z,11.13
2019-05-07T19:33:12.534Z,11.16
2019-05-07T19:35:42.012Z,11.17
2019-05-07T19:38:11.472Z,11.09
2019-05-07T19:40:42.019Z,11.11
2019-05-07T19:43:11.635Z,11.15
2019-05-07T19:45:41.850Z,11.20
2019-05-07T19:48:12.417Z,11.21
2019-05-07T19:50:42.075Z,11.19
2019-05-07T19:53:12.507Z,11.18
2019-05-07T19:56:02.020Z,11.22
2019-05-07T19:58:32.706Z,11.18
2019-05-07T20:01:03.662Z,11.21
2019-05-07T20:03:33.098Z,11.13
2019-05-07T20:06:02.595Z,11.17
2019-05-07T20:08:32.489Z,11.16
2019-05-07T20:11:03.525Z,11.26
2019-05-07T20:13:32.924Z,11.20
2019-05-07T20:16:12.092Z,11.16
2019-05-07T20:18:42.870Z,11.14
2019-05-07T20:21:12.591Z,11.08
2019-05-07T20:23:43.446Z,10.97
2019-05-07T20:26:12.878Z,10.93
2019-05-07T20:28:42.226Z,10.97
2019-05-07T20:31:12.206Z,10.91
2019-05-07T20:33:42.422Z,10.92
2019-05-07T20:36:12.098Z,10.82
2019-05-07T20:38:42.759Z,10.84
2019-05-07T20:41:13.670Z,10.77
2019-05-07T20:43:46.035Z,10.71
2019-05-07T20:46:15.405Z,10.72
2019-05-07T20:48:45.078Z,10.65
2019-05-07T20:51:14.441Z,10.59
2019-05-07T20:53:52.251Z,10.55
2019-05-07T20:56:23.544Z,10.55
2019-05-07T20:58:52.978Z,10.61
2019-05-07T21:01:22.457Z,10.64
2019-05-07T21:03:52.747Z,10.61
2019-05-07T21:06:22.653Z,10.63
2019-05-07T21:08:52.203Z,10.67
2019-05-07T21:11:22.715Z,10.71
2019-05-07T21:13:52.538Z,10.74
2019-05-07T21:16:22.269Z,10.75
2019-05-07T21:18:52.815Z,10.77
2019-05-07T21:21:22.528Z,10.83
2019-05-07T21:23:52.680Z,10.90
2019-05-07T21:26:22.701Z,10.90
2019-05-07T21:28:52.873Z,10.97
2019-05-07T21:31:22.867Z,10.98
2019-05-07T21:33:52.613Z,10.99
2019-05-07T21:36:22.797Z,11.00
2019-05-07T21:38:52.551Z,11.07
2019-05-07T21:41:22.640Z,11.07
2019-05-07T21:43:52.820Z,11.10
2019-05-07T21:46:22.585Z,11.07
2019-05-07T21:48:53.770Z,11.03
2019-05-07T21:51:23.273Z,11.10
2019-05-07T21:53:54.342Z,11.10
2019-05-07T21:56:41.721Z,11.07
2019-05-07T21:59:18.911Z,11.05
2019-05-07T22:01:49.913Z,11.09
2019-05-07T22:04:19.296Z,11.11
2019-05-07T22:06:48.799Z,11.14
2019-05-07T22:09:18.730Z,11.18
2019-05-07T22:11:48.124Z,11.16
2019-05-07T22:14:17.633Z,11.12
2019-05-07T22:16:47.007Z,11.14
2019-05-07T22:19:16.364Z,11.14
2019-05-07T22:21:45.799Z,11.16
2019-05-07T22:24:15.339Z,11.14
2019-05-07T22:26:44.796Z,11.14
2019-05-07T22:29:14.274Z,11.14
2019-05-07T22:34:38.204Z,11.20
2019-05-07T22:37:07.555Z,11.20
2019-05-07T22:39:36.914Z,11.20
2019-05-07T22:42:06.285Z,11.13
2019-05-07T22:44:35.683Z,11.13
2019-05-07T22:47:06.690Z,11.11
2019-05-07T22:49:36.060Z,11.18
2019-05-07T22:52:05.470Z,11.25
2019-05-07T22:54:34.823Z,11.20
2019-05-07T22:57:08.564Z,11.21
2019-05-07T22:59:37.952Z,11.22
2019-05-07T23:02:07.392Z,11.14
2019-05-07T23:04:36.790Z,11.14
2019-05-07T23:07:06.159Z,11.17
2019-05-07T23:09:35.531Z,11.15
2019-05-07T23:12:04.918Z,11.18
2019-05-07T23:14:34.284Z,11.18
2019-05-07T23:17:03.654Z,11.22
2019-05-07T23:19:33.077Z,11.19
2019-05-07T23:22:02.885Z,11.12
2019-05-07T23:24:32.363Z,11.16
2019-05-07T23:27:01.739Z,11.13
2019-05-07T23:29:33.050Z,11.13
2019-05-07T23:32:02.224Z,11.16
2019-05-07T23:34:32.578Z,11.15
2019-05-07T23:37:02.603Z,11.22
2019-05-07T23:39:36.444Z,11.16
2019-05-07T23:42:16.355Z,11.09
2019-05-07T23:44:45.852Z,11.08
2019-05-07T23:47:22.615Z,11.08
2019-05-07T23:49:52.353Z,11.12
2019-05-07T23:52:22.620Z,11.15
2019-05-07T23:54:52.273Z,11.14
2019-05-07T23:57:23.156Z,11.18
2019-05-07T23:59:53.099Z,11.14
